createdAt,value
2019-05-01T00:00:57.333Z,6.27
2019-05-01T00:03:33.632Z,4.40
2019-05-01T00:06:06.984Z,4.70
2019-05-01T00:08:35.586Z,7.87
2019-05-01T00:11:04.229Z,6.70
2019-05-01T00:13:32.849Z,12.47
2019-05-01T00:16:01.432Z,10.00
2019-05-01T00:18:30.028Z,7.23
2019-05-01T00:20:59.046Z,9.07
2019-05-01T00:23:27.683Z,7.57
2019-05-01T00:25:56.362Z,8.07
2019-05-01T00:28:24.999Z,7.53
2019-05-01T00:30:53.646Z,7.03
2019-05-01T00:33:22.320Z,8.03
2019-05-01T00:35:53.575Z,9.60
2019-05-01T00:38:22.123Z,7.40
2019-05-01T00:40:51.060Z,8.03
2019-05-01T00:43:19.567Z,6.93
2019-05-01T00:45:48.075Z,6.17
2019-05-01T00:48:16.747Z,4.60
2019-05-01T00:50:45.380Z,8.50
2019-05-01T00:53:14.065Z,5.57
2019-05-01T00:56:02.412Z,4.67
2019-05-01T00:58:50.573Z,3.33
2019-05-01T01:01:26.833Z,4.87
2019-05-01T01:03:55.455Z,5.27
2019-05-01T01:06:24.140Z,6.37
2019-05-01T01:08:52.777Z,5.47
2019-05-01T01:11:21.386Z,3.80
2019-05-01T01:13:50.024Z,4.33
2019-05-01T01:16:18.591Z,3.60
2019-05-01T01:18:47.264Z,5.17
2019-05-01T01:21:15.921Z,11.50
2019-05-01T01:23:44.899Z,21.67
2019-05-01T01:26:13.542Z,23.30
2019-05-01T01:28:42.190Z,28.80
2019-05-01T01:31:10.866Z,26.37
2019-05-01T01:33:39.513Z,20.50
2019-05-01T01:36:08.115Z,21.50
2019-05-01T01:38:36.759Z,22.23
2019-05-01T01:41:05.617Z,22.07
2019-05-01T01:43:39.506Z,26.43
2019-05-01T01:46:12.522Z,24.47
2019-05-01T01:48:43.676Z,23.67
2019-05-01T01:51:12.451Z,27.33
2019-05-01T01:53:41.191Z,26.90
2019-05-01T01:56:10.075Z,26.73
2019-05-01T01:58:38.817Z,25.70
2019-05-01T02:01:21.198Z,19.83
2019-05-01T02:03:51.491Z,19.50
2019-05-01T02:06:20.141Z,23.67
2019-05-01T02:08:56.387Z,20.37
2019-05-01T02:11:19.592Z,15.00
2019-05-01T02:13:48.239Z,14.10
2019-05-01T02:16:16.884Z,11.63
2019-05-01T02:18:45.572Z,13.07
2019-05-01T02:21:14.276Z,13.47
2019-05-01T02:23:42.905Z,14.17
2019-05-01T02:26:13.334Z,14.17
2019-05-01T02:28:43.533Z,12.50
2019-05-01T02:31:29.835Z,18.27
2019-05-01T02:33:59.595Z,20.60
2019-05-01T02:36:28.733Z,12.20
2019-05-01T02:38:59.821Z,13.40
2019-05-01T02:41:31.360Z,7.83
2019-05-01T02:44:02.537Z,12.33
2019-05-01T02:46:33.871Z,18.57
2019-05-01T02:49:11.182Z,8.03
2019-05-01T02:51:42.557Z,8.07
2019-05-01T02:54:13.735Z,6.40
2019-05-01T02:56:54.836Z,7.43
2019-05-01T02:59:26.214Z,8.27
2019-05-01T03:01:55.754Z,10.13
2019-05-01T03:04:24.534Z,10.57
2019-05-01T03:06:53.872Z,12.30
2019-05-01T03:09:23.303Z,11.07
2019-05-01T03:11:54.232Z,6.00
2019-05-01T03:14:25.771Z,7.37
2019-05-01T03:17:01.324Z,7.23
2019-05-01T03:19:35.444Z,8.77
2019-05-01T03:22:22.881Z,8.27
2019-05-01T03:24:51.619Z,7.47
2019-05-01T03:27:20.346Z,6.60
2019-05-01T03:29:49.022Z,8.40
2019-05-01T03:32:19.802Z,6.97
2019-05-01T03:34:52.392Z,6.27
2019-05-01T03:37:18.403Z,11.03
2019-05-01T03:39:47.345Z,8.93
2019-05-01T03:42:15.993Z,8.80
2019-05-01T03:44:45.148Z,9.13
2019-05-01T03:47:13.975Z,12.43
2019-05-01T03:49:42.607Z,8.07
2019-05-01T03:52:11.280Z,6.77
2019-05-01T03:54:40.110Z,7.33
2019-05-01T03:57:12.493Z,6.10
2019-05-01T03:59:39.434Z,7.37
2019-05-01T04:02:32.073Z,7.47
2019-05-01T04:04:47.266Z,8.43
2019-05-01T04:07:15.947Z,7.77
2019-05-01T04:09:44.584Z,10.00
2019-05-01T04:12:13.669Z,8.00
2019-05-01T04:14:42.413Z,6.63
2019-05-01T04:17:12.695Z,6.40
2019-05-01T04:19:41.375Z,9.00
2019-05-01T04:22:13.429Z,4.23
2019-05-01T04:24:42.726Z,9.70
2019-05-01T04:27:13.099Z,3.97
2019-05-01T04:29:49.354Z,11.17
2019-05-01T04:32:25.609Z,13.43
2019-05-01T04:35:13.328Z,12.47
2019-05-01T04:37:42.370Z,15.03
2019-05-01T04:40:11.010Z,11.80
2019-05-01T04:42:39.796Z,8.37
2019-05-01T04:45:09.022Z,8.53
2019-05-01T04:47:37.669Z,6.83
2019-05-01T04:50:09.116Z,7.50
2019-05-01T04:52:38.671Z,13.53
2019-05-01T04:55:08.304Z,10.47
2019-05-01T04:57:37.176Z,5.50
2019-05-01T05:00:07.317Z,9.70
2019-05-01T05:05:18.462Z,4.20
2019-05-01T05:07:47.359Z,5.03
2019-05-01T05:10:16.039Z,3.77
2019-05-01T05:12:49.848Z,5.07
2019-05-01T05:15:23.316Z,10.93
2019-05-01T05:17:52.116Z,3.57
2019-05-01T05:20:20.858Z,6.03
2019-05-01T05:22:49.604Z,11.53
2019-05-01T05:25:18.237Z,13.67
2019-05-01T05:27:47.006Z,5.63
2019-05-01T05:30:15.648Z,17.77
2019-05-01T05:32:46.156Z,8.30
2019-05-01T05:35:15.704Z,8.33
2019-05-01T05:37:56.810Z,8.40
2019-05-01T05:40:29.999Z,3.30
2019-05-01T05:42:58.644Z,5.63
2019-05-01T05:45:27.484Z,2.20
2019-05-01T05:47:56.461Z,4.13
2019-05-01T05:50:26.930Z,3.23
2019-05-01T05:53:02.560Z,16.43
2019-05-01T05:55:40.198Z,4.13
2019-05-01T05:58:13.329Z,2.90
2019-05-01T06:00:46.104Z,2.60
2019-05-01T06:03:35.601Z,5.93
2019-05-01T06:06:10.283Z,6.20
2019-05-01T06:08:41.638Z,7.37
2019-05-01T06:11:34.040Z,3.87
2019-05-01T06:14:07.883Z,4.27
2019-05-01T06:16:40.895Z,7.67
2019-05-01T06:19:26.398Z,3.97
2019-05-01T06:22:10.160Z,5.87
2019-05-01T06:24:40.661Z,6.27
2019-05-01T06:27:13.740Z,5.87
2019-05-01T06:29:40.675Z,14.20
2019-05-01T06:32:09.523Z,9.90
2019-05-01T06:34:41.400Z,14.20
2019-05-01T06:37:10.078Z,5.43
2019-05-01T06:39:42.902Z,6.40
2019-05-01T06:42:15.187Z,5.83
2019-05-01T06:44:44.482Z,4.70
2019-05-01T06:47:30.779Z,4.93
2019-05-01T06:50:05.930Z,2.87
2019-05-01T06:52:34.990Z,4.07
2019-05-01T06:55:03.722Z,1.23
2019-05-01T06:57:33.046Z,1.93
2019-05-01T07:00:08.194Z,3.43
2019-05-01T07:02:35.451Z,3.73
2019-05-01T07:05:09.118Z,1.73
2019-05-01T07:07:38.004Z,11.70
2019-05-01T07:10:06.946Z,2.73
2019-05-01T07:12:37.197Z,3.90
2019-05-01T07:15:06.901Z,2.90
2019-05-01T07:17:35.989Z,3.10
2019-05-01T07:20:12.066Z,1.47
2019-05-01T07:22:42.336Z,1.83
2019-05-01T07:25:09.554Z,1.40
2019-05-01T07:27:38.293Z,3.90
2019-05-01T07:30:19.671Z,1.13
2019-05-01T07:32:49.397Z,2.83
2019-05-01T07:35:18.051Z,2.60
2019-05-01T07:37:46.696Z,2.03
2019-05-01T07:40:15.545Z,2.00
2019-05-01T07:42:48.204Z,15.07
2019-05-01T07:45:30.861Z,4.10
2019-05-01T07:48:00.954Z,2.43
2019-05-01T07:50:33.841Z,7.83
2019-05-01T07:53:02.480Z,5.50
2019-05-01T07:55:37.499Z,2.77
2019-05-01T07:58:10.257Z,4.93
2019-05-01T08:01:03.440Z,3.17
2019-05-01T08:03:32.081Z,2.37
2019-05-01T08:06:03.592Z,17.30
2019-05-01T08:08:32.239Z,10.68
2019-05-01T08:11:05.282Z,3.35
2019-05-01T08:13:34.992Z,2.40
2019-05-01T08:16:02.101Z,3.75
2019-05-01T08:18:36.112Z,2.67
2019-05-01T08:21:21.111Z,1.45
2019-05-01T08:23:50.816Z,2.60
2019-05-01T08:26:19.463Z,3.95
2019-05-01T08:29:06.940Z,2.17
2019-05-01T08:31:58.726Z,2.37
2019-05-01T08:34:32.572Z,1.67
2019-05-01T08:37:01.184Z,3.92
2019-05-01T08:39:29.679Z,2.15
2019-05-01T08:41:58.238Z,3.80
2019-05-01T08:44:29.669Z,1.10
2019-05-01T08:47:00.554Z,1.10
2019-05-01T08:49:30.874Z,3.40
2019-05-01T08:51:59.518Z,0.80
2019-05-01T08:54:28.941Z,2.00
2019-05-01T08:56:59.983Z,1.47
2019-05-01T08:59:28.725Z,8.40
2019-05-01T09:02:09.065Z,1.17
2019-05-01T09:04:30.486Z,0.85
2019-05-01T09:06:57.873Z,1.07
2019-05-01T09:09:26.518Z,0.75
2019-05-01T09:11:56.023Z,0.68
2019-05-01T09:14:25.063Z,2.05
2019-05-01T09:16:53.628Z,1.70
2019-05-01T09:19:22.241Z,0.50
2019-05-01T09:21:50.849Z,0.90
2019-05-01T09:24:23.136Z,1.32
2019-05-01T09:26:51.622Z,1.20
2019-05-01T09:29:27.858Z,2.80
2019-05-01T09:31:56.487Z,0.82
2019-05-01T09:34:25.268Z,0.75
2019-05-01T09:36:54.261Z,0.82
2019-05-01T09:39:24.113Z,2.00
2019-05-01T09:41:52.752Z,1.75
2019-05-01T09:44:21.398Z,1.70
2019-05-01T09:46:50.050Z,1.15
2019-05-01T09:49:19.540Z,1.02
2019-05-01T09:51:52.585Z,0.90
2019-05-01T09:54:22.864Z,0.72
2019-05-01T09:56:51.437Z,1.55
2019-05-01T09:59:20.047Z,6.75
2019-05-01T10:01:48.722Z,3.40
2019-05-01T10:04:17.418Z,1.60
2019-05-01T10:06:47.649Z,2.72
2019-05-01T10:09:19.338Z,1.70
2019-05-01T10:11:47.902Z,0.80
2019-05-01T10:14:16.465Z,0.85
2019-05-01T10:16:45.115Z,2.17
2019-05-01T10:19:13.740Z,3.27
2019-05-01T10:21:42.351Z,0.60
2019-05-01T10:24:10.973Z,1.10
2019-05-01T10:26:43.958Z,4.92
2019-05-01T10:29:16.799Z,0.90
2019-05-01T10:32:01.919Z,2.35
2019-05-01T10:34:44.632Z,1.60
2019-05-01T10:37:13.273Z,0.82
2019-05-01T10:39:41.900Z,1.40
2019-05-01T10:42:10.533Z,1.10
2019-05-01T10:44:39.119Z,2.75
2019-05-01T10:47:07.766Z,1.00
2019-05-01T10:49:36.413Z,0.93
2019-05-01T10:52:13.945Z,1.20
2019-05-01T10:54:35.467Z,1.77
2019-05-01T10:57:04.658Z,0.70
2019-05-01T10:59:33.290Z,0.93
2019-05-01T11:02:03.560Z,1.72
2019-05-01T11:04:32.197Z,0.60
2019-05-01T11:07:00.822Z,0.50
2019-05-01T11:09:29.494Z,0.55
2019-05-01T11:11:58.125Z,1.82
2019-05-01T11:14:26.757Z,0.78
2019-05-01T11:16:55.450Z,5.12
2019-05-01T11:19:24.016Z,2.67
2019-05-01T11:21:52.620Z,3.47
2019-05-01T11:24:21.248Z,5.37
2019-05-01T11:26:49.826Z,2.25
2019-05-01T11:29:18.503Z,0.85
2019-05-01T11:31:55.016Z,2.72
2019-05-01T11:34:41.476Z,6.25
2019-05-01T11:37:20.707Z,1.35
2019-05-01T11:39:56.900Z,2.30
2019-05-01T11:42:25.608Z,0.88
2019-05-01T11:44:54.290Z,1.25
2019-05-01T11:47:23.029Z,1.32
2019-05-01T11:49:51.641Z,3.00
2019-05-01T11:52:20.274Z,1.60
2019-05-01T11:54:48.822Z,1.02
2019-05-01T11:57:17.375Z,1.82
2019-05-01T11:59:48.699Z,1.75
2019-05-01T12:02:17.402Z,1.27
2019-05-01T12:04:46.082Z,1.37
2019-05-01T12:07:14.718Z,1.90
2019-05-01T12:09:43.373Z,14.20
2019-05-01T12:12:13.704Z,2.25
2019-05-01T12:14:42.276Z,0.85
2019-05-01T12:17:12.519Z,1.90
2019-05-01T12:19:41.087Z,2.62
2019-05-01T12:22:09.735Z,1.35
2019-05-01T12:24:38.372Z,0.88
2019-05-01T12:27:06.970Z,0.65
2019-05-01T12:29:35.606Z,5.22
2019-05-01T12:32:04.284Z,4.53
2019-05-01T12:34:32.782Z,2.58
2019-05-01T12:37:21.054Z,1.52
2019-05-01T12:39:49.687Z,2.62
2019-05-01T12:42:19.964Z,3.65
2019-05-01T12:44:48.628Z,3.35
2019-05-01T12:47:21.839Z,0.93
2019-05-01T12:49:52.066Z,1.47
2019-05-01T12:52:22.266Z,0.50
2019-05-01T12:55:08.573Z,0.70
2019-05-01T12:57:37.285Z,1.00
2019-05-01T13:00:09.451Z,2.17
2019-05-01T13:02:38.127Z,1.60
2019-05-01T13:05:07.812Z,5.08
2019-05-01T13:07:36.454Z,1.55
2019-05-01T13:10:05.933Z,1.02
2019-05-01T13:12:34.425Z,20.00
2019-05-01T13:15:03.134Z,1.22
2019-05-01T13:17:31.685Z,12.93
2019-05-01T13:20:00.194Z,2.25
2019-05-01T13:22:28.751Z,0.78
2019-05-01T13:24:57.313Z,3.85
2019-05-01T13:27:36.122Z,2.40
2019-05-01T13:30:12.071Z,3.75
2019-05-01T13:32:45.024Z,6.00
2019-05-01T13:35:14.013Z,2.25
2019-05-01T13:37:42.852Z,0.95
2019-05-01T13:40:12.079Z,2.02
2019-05-01T13:42:40.874Z,2.90
2019-05-01T13:45:10.019Z,1.70
2019-05-01T13:47:38.688Z,0.93
2019-05-01T13:50:09.030Z,2.25
2019-05-01T13:52:37.595Z,0.70
2019-05-01T13:55:07.840Z,0.85
2019-05-01T13:57:36.408Z,13.55
2019-05-01T14:00:07.834Z,5.12
2019-05-01T14:02:36.393Z,2.40
2019-05-01T14:05:06.451Z,4.87
2019-05-01T14:07:35.095Z,0.80
2019-05-01T14:10:04.195Z,4.42
2019-05-01T14:12:32.895Z,18.55
2019-05-01T14:15:01.545Z,1.80
2019-05-01T14:17:30.032Z,1.40
2019-05-01T14:20:03.066Z,1.20
2019-05-01T14:22:39.109Z,2.20
2019-05-01T14:25:14.844Z,1.25
2019-05-01T14:27:43.482Z,0.68
2019-05-01T14:30:12.625Z,0.78
2019-05-01T14:32:41.309Z,0.97
2019-05-01T14:35:10.646Z,5.00
2019-05-01T14:37:39.214Z,1.90
2019-05-01T14:40:07.892Z,6.60
2019-05-01T14:42:36.528Z,2.52
2019-05-01T14:45:08.116Z,1.90
2019-05-01T14:47:36.781Z,2.35
2019-05-01T14:50:08.548Z,1.55
2019-05-01T14:52:37.120Z,0.70
2019-05-01T14:55:08.751Z,0.60
2019-05-01T14:57:37.317Z,2.55
2019-05-01T15:00:07.763Z,0.90
2019-05-01T15:02:36.335Z,3.37
2019-05-01T15:05:06.474Z,1.87
2019-05-01T15:07:43.425Z,2.55
2019-05-01T15:10:06.773Z,3.50
2019-05-01T15:12:35.466Z,2.20
2019-05-01T15:15:15.814Z,3.87
2019-05-01T15:17:46.128Z,7.93
2019-05-01T15:20:14.859Z,2.90
2019-05-01T15:22:43.418Z,6.93
2019-05-01T15:25:12.094Z,2.50
2019-05-01T15:27:40.724Z,4.80
2019-05-01T15:30:09.724Z,1.87
2019-05-01T15:32:38.303Z,13.83
2019-05-01T15:35:07.005Z,1.57
2019-05-01T15:37:35.514Z,1.13
2019-05-01T15:40:09.298Z,2.77
2019-05-01T15:42:39.513Z,2.03
2019-05-01T15:45:08.825Z,5.80
2019-05-01T15:47:37.509Z,10.53
2019-05-01T15:50:09.081Z,2.80
2019-05-01T15:52:37.725Z,5.90
2019-05-01T15:55:08.107Z,3.93
2019-05-01T15:57:36.730Z,3.77
2019-05-01T16:00:12.642Z,4.53
2019-05-01T16:02:41.320Z,0.97
2019-05-01T16:05:09.983Z,1.07
2019-05-01T16:07:38.478Z,4.33
2019-05-01T16:10:09.751Z,3.73
2019-05-01T16:12:48.776Z,1.97
2019-05-01T16:15:19.152Z,3.80
2019-05-01T16:17:47.729Z,3.93
2019-05-01T16:20:16.949Z,5.40
2019-05-01T16:22:45.962Z,1.60
2019-05-01T16:25:14.667Z,2.37
2019-05-01T16:27:44.156Z,0.87
2019-05-01T16:30:14.472Z,2.43
2019-05-01T16:32:43.105Z,2.60
2019-05-01T16:35:11.944Z,1.17
2019-05-01T16:37:40.598Z,1.37
2019-05-01T16:40:13.766Z,3.43
2019-05-01T16:42:42.379Z,5.30
2019-05-01T16:45:14.674Z,1.90
2019-05-01T16:47:43.304Z,9.00
2019-05-01T16:50:12.448Z,4.73
2019-05-01T16:52:42.657Z,2.10
2019-05-01T16:55:12.804Z,3.43
2019-05-01T16:57:41.429Z,1.77
2019-05-01T17:00:12.812Z,2.23
2019-05-01T17:02:52.215Z,21.80
2019-05-01T17:05:22.466Z,8.43
2019-05-01T17:07:52.658Z,2.63
2019-05-01T17:10:22.934Z,1.80
2019-05-01T17:12:55.846Z,1.50
2019-05-01T17:15:26.231Z,5.03
2019-05-01T17:17:55.172Z,1.87
2019-05-01T17:20:24.551Z,1.20
2019-05-01T17:22:53.182Z,3.93
2019-05-01T17:25:21.834Z,4.00
2019-05-01T17:27:50.476Z,5.93
2019-05-01T17:30:23.706Z,3.67
2019-05-01T17:32:52.335Z,1.50
2019-05-01T17:35:20.976Z,4.40
2019-05-01T17:37:49.581Z,5.63
2019-05-01T17:40:18.218Z,3.63
2019-05-01T17:42:49.659Z,6.67
2019-05-01T17:45:18.301Z,2.77
2019-05-01T17:47:46.877Z,3.40
2019-05-01T17:50:16.436Z,2.63
2019-05-01T17:52:45.867Z,5.00
2019-05-01T17:55:14.511Z,2.03
2019-05-01T17:57:43.082Z,6.77
2019-05-01T18:00:29.904Z,9.67
2019-05-01T18:03:15.194Z,6.50
2019-05-01T18:06:03.166Z,4.20
2019-05-01T18:08:31.863Z,5.20
2019-05-01T18:11:00.484Z,4.90
2019-05-01T18:13:29.114Z,5.40
2019-05-01T18:15:57.749Z,6.07
2019-05-01T18:18:26.356Z,2.40
2019-05-01T18:20:55.000Z,2.83
2019-05-01T18:23:31.272Z,6.70
2019-05-01T18:26:13.398Z,3.43
2019-05-01T18:28:43.576Z,7.70
2019-05-01T18:31:13.951Z,8.97
2019-05-01T18:33:42.528Z,6.57
2019-05-01T18:36:11.092Z,9.47
2019-05-01T18:38:47.651Z,8.33
2019-05-01T18:41:16.065Z,10.03
2019-05-01T18:43:44.700Z,7.57
2019-05-01T18:46:14.731Z,5.57
2019-05-01T18:48:43.928Z,8.10
2019-05-01T18:51:12.611Z,12.87
2019-05-01T18:53:42.696Z,5.60
2019-05-01T18:56:11.331Z,4.57
2019-05-01T18:58:39.964Z,1.50
2019-05-01T19:01:09.463Z,2.67
2019-05-01T19:03:42.207Z,2.47
2019-05-01T19:06:09.366Z,1.63
2019-05-01T19:08:38.043Z,1.37
2019-05-01T19:11:12.873Z,1.47
2019-05-01T19:13:37.918Z,2.83
2019-05-01T19:16:08.381Z,1.97
2019-05-01T19:18:36.829Z,3.53
2019-05-01T19:21:05.791Z,4.47
2019-05-01T19:23:34.889Z,1.50
2019-05-01T19:26:06.992Z,1.87
2019-05-01T19:28:35.563Z,1.70
2019-05-01T19:31:04.397Z,3.43
2019-05-01T19:33:33.152Z,3.20
2019-05-01T19:36:02.420Z,3.70
2019-05-01T19:38:34.928Z,1.80
2019-05-01T19:41:03.663Z,4.00
2019-05-01T19:43:35.934Z,1.40
2019-05-01T19:46:03.352Z,4.53
2019-05-01T19:48:31.995Z,2.30
2019-05-01T19:51:00.875Z,1.73
2019-05-01T19:53:29.606Z,3.93
2019-05-01T19:55:58.230Z,2.07
2019-05-01T19:58:26.894Z,1.50
2019-05-01T20:00:57.849Z,3.63
2019-05-01T20:03:30.671Z,5.63
2019-05-01T20:05:59.720Z,2.23
2019-05-01T20:08:27.167Z,6.03
2019-05-01T20:10:55.916Z,3.47
2019-05-01T20:13:24.544Z,3.33
2019-05-01T20:15:53.297Z,5.03
2019-05-01T20:18:21.927Z,5.40
2019-05-01T20:20:50.608Z,2.77
2019-05-01T20:23:19.221Z,5.93
2019-05-01T20:25:51.053Z,2.33
2019-05-01T20:28:19.971Z,3.53
2019-05-01T20:30:49.638Z,3.07
2019-05-01T20:33:18.562Z,2.27
2019-05-01T20:35:47.137Z,5.87
2019-05-01T20:38:15.766Z,2.70
2019-05-01T20:40:44.414Z,2.00
2019-05-01T20:43:13.022Z,1.97
2019-05-01T20:45:45.001Z,7.27
2019-05-01T20:48:11.876Z,3.00
2019-05-01T20:50:40.505Z,3.10
2019-05-01T20:53:09.004Z,2.50
2019-05-01T20:55:37.492Z,3.47
2019-05-01T20:58:13.768Z,7.17
2019-05-01T21:00:42.791Z,3.70
2019-05-01T21:03:14.242Z,3.53
2019-05-01T21:05:58.345Z,3.33
2019-05-01T21:08:39.343Z,2.17
2019-05-01T21:11:11.082Z,1.63
2019-05-01T21:13:39.502Z,2.90
2019-05-01T21:16:08.252Z,3.27
2019-05-01T21:18:36.952Z,3.43
2019-05-01T21:21:05.574Z,1.83
2019-05-01T21:23:34.070Z,2.23
2019-05-01T21:26:03.893Z,2.70
2019-05-01T21:28:34.045Z,4.20
2019-05-01T21:31:03.924Z,3.17
2019-05-01T21:33:33.985Z,6.67
2019-05-01T21:36:04.937Z,5.73
2019-05-01T21:38:33.111Z,5.87
2019-05-01T21:41:02.720Z,1.67
2019-05-01T21:43:35.196Z,2.50
2019-05-01T21:46:03.791Z,4.13
2019-05-01T21:48:33.453Z,5.23
2019-05-01T21:51:06.933Z,2.83
2019-05-01T21:53:32.877Z,1.87
2019-05-01T21:56:02.324Z,2.27
2019-05-01T21:58:33.981Z,3.23
2019-05-01T22:01:02.883Z,2.27
2019-05-01T22:03:31.662Z,4.10
2019-05-01T22:06:00.287Z,2.77
2019-05-01T22:08:28.990Z,2.57
2019-05-01T22:11:01.740Z,2.47
2019-05-01T22:13:28.444Z,4.20
2019-05-01T22:15:58.653Z,3.37
2019-05-01T22:18:41.440Z,4.80
2019-05-01T22:21:29.679Z,6.53
2019-05-01T22:24:11.876Z,3.43
2019-05-01T22:26:50.750Z,5.60
2019-05-01T22:29:20.948Z,3.47
2019-05-01T22:31:52.909Z,3.27
2019-05-01T22:34:23.112Z,3.33
2019-05-01T22:36:51.675Z,4.87
2019-05-01T22:39:21.917Z,3.70
2019-05-01T22:41:50.562Z,6.20
2019-05-01T22:44:19.728Z,8.40
2019-05-01T22:46:48.473Z,7.37
2019-05-01T22:49:17.115Z,3.47
2019-05-01T22:51:45.803Z,3.87
2019-05-01T22:54:14.356Z,3.97
2019-05-01T22:56:42.856Z,4.00
2019-05-01T22:59:12.139Z,4.93
2019-05-01T23:01:42.140Z,3.77
2019-05-01T23:04:12.172Z,3.83
2019-05-01T23:06:41.866Z,4.63
2019-05-01T23:09:13.724Z,6.10
2019-05-01T23:11:44.011Z,5.70
2019-05-01T23:14:12.723Z,4.87
2019-05-01T23:16:48.939Z,5.37
2019-05-01T23:19:17.637Z,4.80
2019-05-01T23:21:50.870Z,4.17
2019-05-01T23:24:16.557Z,5.13
2019-05-01T23:26:48.104Z,4.83
2019-05-01T23:29:15.587Z,4.63
2019-05-01T23:31:44.300Z,3.30
2019-05-01T23:34:12.880Z,3.70
2019-05-01T23:36:41.442Z,3.57
2019-05-01T23:39:10.304Z,5.17
2019-05-01T23:41:45.583Z,4.13
2019-05-01T23:44:09.276Z,4.53
2019-05-01T23:46:37.792Z,6.83
2019-05-01T23:49:06.427Z,4.83
2019-05-01T23:51:35.085Z,5.57
2019-05-01T23:54:03.636Z,3.93
2019-05-01T23:56:35.032Z,6.70
2019-05-01T23:59:02.605Z,5.93
